Loring, Montana
Current Conditions -  °F | °C
As of 5:53 AM on Tuesday 21 Oct 2014 (Local Time) from KGGW Reporting Station
Clear Clear  
Wind Chill: 40°   Ceiling: Unl
Heat Index: 46°   Visibility: 10mi
Dew Point: 37°   Wind: 15mph
Humidity: 71%   Direction: 100°E
Pressure: 29.68"   Gusts: NA
Location:  48.79°N, 107.86°W
Report Text: KGGW 211153Z AUTO 10013KT 10SM CLR 08/03 A2968 RMK AO2 SLP051 T00780028 10106 20072 56008
Loading
Personal Weather Stations






























Interactive Weather Map
Tropical Storm Tracking
New forecast layout! Learn more

10-Day Weather Forecast

Advertisements
Track Severe Weather on mobile